Time;durP1;ratioP1;P1;durP2;ratioP2;P2;SDS_P1;SDS_P2;PMS_P1;PMS_P2;Temp;Humidity;BMP_temperature;BMP_pressure;BME280_temperature;BME280_humidity;BME280_pressure;Samples;Min_cycle;Max_cycle;Signal;HPM_P1;HPM_P2
2023/10/13 00:00:25;;;;;;;;;;;;;;;13.92;71.49;100057.38;304049;32;3512;-76
2023/10/13 00:00:36;;;;;;;;;;;;;;;13.94;71.52;100057.31;303628;32;2330;-77
2023/10/13 00:00:47;;;;;;;;;;;;;;;13.93;71.76;100060.88;303455;32;3136;-76
2023/10/13 00:00:58;;;;;;;;;;;;;;;13.94;71.50;100059.94;300040;32;1455;-75
2023/10/13 00:01:11;;;;;;;;;;;;;;;13.94;71.31;100055.53;297836;32;3367;-74
2023/10/13 00:01:24;;;;;;;;;;;;;;;13.93;71.34;100051.19;298575;32;4789;-74
2023/10/13 00:01:34;;;;;;;;;;;;;;;13.94;71.62;100058.16;297852;33;4321;-76
2023/10/13 00:01:46;;;;;;;;;;;;;;;13.95;71.36;100059.03;298012;33;1358;-75
2023/10/13 00:01:58;;;;;;;;;;;;;;;13.95;71.49;100056.41;295816;33;2299;-76
2023/10/13 00:02:10;;;;;;;;;;;;;;;13.94;71.56;100054.69;294948;33;4559;-76
2023/10/13 00:02:22;;;;;;;;;;;;;;;13.91;71.60;100060.09;295955;33;5128;-76
2023/10/13 00:02:33;;;;;;;;;;;;;;;13.90;71.89;100061.88;296869;33;3588;-76
2023/10/13 00:02:43;;;;;;;;;;;;;;;13.90;71.83;100063.66;295821;33;1141;-76
2023/10/13 00:02:53;;;;;;;;;;;;;;;13.88;71.93;100055.81;292326;33;4011;-76
2023/10/13 00:03:05;;;;;;;;;;;;;;;13.89;71.59;100060.16;289639;33;3784;-77
2023/10/13 00:03:15;;;;;;;;;;;;;;;13.88;71.92;100054.97;287883;34;4502;-76
2023/10/13 00:03:31;;;;;;;;;;;;;;;13.88;71.67;100060.22;289478;34;883;-76
2023/10/13 00:03:44;;;;;;;;;;;;;;;13.88;71.67;100049.72;288424;34;1514;-76
2023/10/13 00:03:54;;;;;;;;;;;;;;;13.88;71.82;100057.59;285789;34;6193;-76
2023/10/13 00:04:05;;;;;;;;;;;;;;;13.87;71.70;100058.53;284343;34;6708;-76
2023/10/13 00:04:15;;;;;;;;;;;;;;;13.87;72.04;100053.28;283768;34;5814;-76
2023/10/13 00:04:26;;;;;;;;;;;;;;;13.87;71.71;100054.13;281712;35;1284;-77
2023/10/13 00:04:36;;;;;;;;;;;;;;;13.87;71.83;100058.53;280200;35;7534;-76
2023/10/13 00:04:46;;;;;;;;;;;;;;;13.82;72.24;100057.94;277075;35;5378;-76
2023/10/13 00:04:56;;;;;;;;;;;;;;;13.82;72.08;100057.94;276570;35;1033;-76
2023/10/13 00:05:09;;;;;;;;;;;;;;;13.80;72.21;100054.50;276263;35;5099;-76
2023/10/13 00:05:19;;;;;;;;;;;;;;;13.79;72.12;100056.28;274800;35;6378;-76
2023/10/13 00:05:33;;;;;;;;;;;;;;;13.79;72.19;100055.44;275717;35;777;-76
2023/10/13 00:05:43;;;;;;;;;;;;;;;13.80;71.92;100054.50;271876;36;1347;-76
2023/10/13 00:06:02;;;;;;;;;;;;;;;13.79;72.14;100053.66;269110;36;8036;-76
2023/10/13 00:06:13;;;;;;;;;;;;;;;13.78;72.30;100054.59;267212;36;1294;-77
2023/10/13 00:06:23;;;;;;;;;;;;;;;13.77;72.15;100052.88;265974;36;9140;-77
2023/10/13 00:08:42;;;;;;;;;;;;;;;13.78;72.06;100053.72;2503399;27;20357;-76
2023/10/13 00:08:52;;;;;;;;;;;;;;;13.78;72.21;100059.00;355934;27;891;-75
2023/10/13 00:09:03;;;;;;;;;;;;;;;13.78;72.27;100059.00;353411;27;1201;-76
2023/10/13 00:09:14;;;;;;;;;;;;;;;13.78;72.32;100051.94;351900;28;847;-76
2023/10/13 00:09:25;;;;;;;;;;;;;;;13.79;72.46;100056.28;350492;28;2158;-76
2023/10/13 00:09:39;;;;;;;;;;;;;;;13.74;72.59;100052.16;349012;28;1342;-75
2023/10/13 00:09:49;;;;;;;;;;;;;;;13.73;72.67;100053.09;351748;28;1250;-76
2023/10/13 00:09:59;;;;;;;;;;;;;;;13.73;72.40;100050.47;348884;28;1435;-76
2023/10/13 00:10:10;;;;;;;;;;;;;;;13.73;72.63;100050.47;347501;28;1212;-76
2023/10/13 00:10:21;;;;;;;;;;;;;;;13.72;72.73;100051.38;348874;28;1464;-76
2023/10/13 00:10:31;;;;;;;;;;;;;;;13.71;72.75;100052.31;349128;28;885;-76
2023/10/13 00:10:41;;;;;;;;;;;;;;;13.72;72.75;100051.38;350332;28;1497;-76
2023/10/13 00:10:52;;;;;;;;;;;;;;;13.72;72.87;100046.97;350308;28;902;-76
2023/10/13 00:11:02;;;;;;;;;;;;;;;13.72;72.87;100052.22;350412;28;1350;-76
2023/10/13 00:11:13;;;;;;;;;;;;;;;13.73;72.56;100047.81;349719;28;2307;-75
2023/10/13 00:11:26;;;;;;;;;;;;;;;13.73;72.72;100053.09;346294;28;3864;-75
2023/10/13 00:11:36;;;;;;;;;;;;;;;13.75;72.46;100043.34;347087;28;4460;-75
2023/10/13 00:11:47;;;;;;;;;;;;;;;13.76;72.48;100055.56;346966;28;2158;-75
2023/10/13 00:11:58;;;;;;;;;;;;;;;13.75;72.70;100048.59;349925;28;1412;-75
2023/10/13 00:12:13;;;;;;;;;;;;;;;13.77;72.37;100052.03;348887;28;940;-76
2023/10/13 00:12:23;;;;;;;;;;;;;;;13.77;72.71;100046.75;348814;28;1317;-76
2023/10/13 00:12:36;;;;;;;;;;;;;;;13.76;72.36;100050.31;348840;28;1050;-76
2023/10/13 00:12:49;;;;;;;;;;;;;;;13.76;72.80;100051.16;348939;28;895;-76
2023/10/13 00:13:12;;;;;;;;;;;;;;;13.75;72.59;100049.47;347562;28;1240;-76
2023/10/13 00:13:22;;;;;;;;;;;;;;;13.75;72.70;100054.72;344134;28;1119;-76
2023/10/13 00:13:50;;;;;;;;;;;;;;;13.74;72.70;100052.16;343570;28;1378;-75
2023/10/13 00:14:03;;;;;;;;;;;;;;;13.71;72.69;100047.03;346190;28;1271;-75
2023/10/13 00:14:16;;;;;;;;;;;;;;;13.71;72.86;100047.03;347651;28;1364;-75
2023/10/13 00:14:33;;;;;;;;;;;;;;;13.71;72.83;100052.31;347597;28;1287;-75
2023/10/13 00:14:45;;;;;;;;;;;;;;;13.69;73.01;100054.16;346342;28;793;-75
2023/10/13 00:14:55;;;;;;;;;;;;;;;13.70;72.98;100050.59;344452;28;1449;-75
2023/10/13 00:15:13;;;;;;;;;;;;;;;13.68;73.01;100042.78;341357;28;1238;-75
2023/10/13 00:15:27;;;;;;;;;;;;;;;13.71;72.72;100052.31;341668;28;1553;-75
2023/10/13 00:15:40;;;;;;;;;;;;;;;13.69;72.90;100048.91;343049;28;1348;-75
2023/10/13 00:15:59;;;;;;;;;;;;;;;13.67;73.00;100046.34;342073;28;1461;-75
2023/10/13 00:16:10;;;;;;;;;;;;;;;13.69;72.89;100043.63;340998;28;848;-75
2023/10/13 00:16:27;;;;;;;;;;;;;;;13.69;73.05;100046.25;339864;29;1344;-75
2023/10/13 00:16:39;;;;;;;;;;;;;;;13.70;72.87;100053.22;340535;29;1414;-75
2023/10/13 00:17:05;;;;;;;;;;;;;;;13.71;72.75;100047.03;342386;28;1378;-75
2023/10/13 00:17:20;;;;;;;;;;;;;;;13.72;72.71;100040.84;339621;29;888;-75
2023/10/13 00:17:32;;;;;;;;;;;;;;;13.71;73.02;100052.31;338222;29;1915;-75
2023/10/13 00:17:42;;;;;;;;;;;;;;;13.71;72.96;100052.31;336926;29;1279;-75
2023/10/13 00:17:55;;;;;;;;;;;;;;;13.72;72.88;100046.13;338843;29;1228;-75
2023/10/13 00:18:12;;;;;;;;;;;;;;;13.70;73.15;100047.97;338300;29;849;-75
2023/10/13 00:18:23;;;;;;;;;;;;;;;13.68;73.11;100044.56;335556;29;1058;-75
2023/10/13 00:18:33;;;;;;;;;;;;;;;13.67;72.97;100042.84;336757;29;1786;-75
2023/10/13 00:18:44;;;;;;;;;;;;;;;13.68;73.07;100049.81;334463;29;1371;-76
2023/10/13 00:18:57;;;;;;;;;;;;;;;13.69;72.91;100044.47;332615;29;1693;-74
2023/10/13 00:19:09;;;;;;;;;;;;;;;13.70;73.19;100045.34;331956;29;1929;-76
2023/10/13 00:19:23;;;;;;;;;;;;;;;13.73;73.05;100045.19;328554;29;2114;-76
2023/10/13 00:19:52;;;;;;;;;;;;;;;13.73;72.76;100045.19;327500;30;2220;-75
2023/10/13 00:20:11;;;;;;;;;;;;;;;13.74;73.17;100047.75;326727;30;1374;-75
2023/10/13 00:20:39;;;;;;;;;;;;;;;13.76;72.81;100045.06;326695;30;1247;-75
2023/10/13 00:20:50;;;;;;;;;;;;;;;13.74;73.12;100039.00;321508;30;3996;-74
2023/10/13 00:21:36;;;;;;;;;;;;;;;13.72;72.78;100046.13;313580;31;2747;-75
2023/10/13 00:21:45;;;;;;;;;;;;;;;13.74;72.92;100041.63;319345;30;4046;-75
2023/10/13 00:21:47;;;;;;;;;;;;;;;13.71;73.11;100041.78;311711;31;2698;-75
2023/10/13 00:22:08;;;;;;;;;;;;;;;13.71;73.13;100042.63;316358;31;869;-75
2023/10/13 00:22:19;;;;;;;;;;;;;;;13.72;73.21;100043.50;308503;31;1303;-75
2023/10/13 00:22:31;;;;;;;;;;;;;;;13.72;73.19;100040.84;311647;31;1124;-75
2023/10/13 00:22:41;;;;;;;;;;;;;;;13.71;73.09;100033.91;309862;31;1287;-76
2023/10/13 00:22:51;;;;;;;;;;;;;;;13.70;73.00;100040.06;309120;31;2211;-75
2023/10/13 00:23:02;;;;;;;;;;;;;;;13.71;73.27;100041.78;308459;31;2840;-75
2023/10/13 00:23:13;;;;;;;;;;;;;;;13.70;73.02;100040.06;313024;31;811;-74
2023/10/13 00:23:26;;;;;;;;;;;;;;;13.72;73.49;100038.22;312654;31;3217;-74
2023/10/13 00:23:37;;;;;;;;;;;;;;;13.73;73.05;100042.56;312442;31;3342;-75
2023/10/13 00:23:53;;;;;;;;;;;;;;;13.73;72.97;100038.16;310372;31;3570;-76
2023/10/13 00:24:12;;;;;;;;;;;;;;;13.75;73.02;100032.81;309183;31;3304;-75
2023/10/13 00:24:29;;;;;;;;;;;;;;;13.75;73.13;100040.72;309209;31;2236;-75
2023/10/13 00:24:45;;;;;;;;;;;;;;;13.77;72.99;100033.59;306971;32;2114;-76
2023/10/13 00:24:58;;;;;;;;;;;;;;;13.78;72.99;100043.22;308699;31;2828;-75
2023/10/13 00:25:19;;;;;;;;;;;;;;;13.76;72.81;100037.16;308747;31;3016;-75
2023/10/13 00:25:31;;;;;;;;;;;;;;;13.75;73.37;100043.34;303410;32;852;-76
2023/10/13 00:25:49;;;;;;;;;;;;;;;13.75;72.95;100038.09;298232;33;1148;-75
2023/10/13 00:26:02;;;;;;;;;;;;;;;13.75;73.30;100043.34;297083;33;886;-75
2023/10/13 00:26:17;;;;;;;;;;;;;;;13.73;73.08;100035.53;295223;33;842;-75
2023/10/13 00:26:28;;;;;;;;;;;;;;;13.73;73.25;100039.94;293094;33;1392;-76
2023/10/13 00:26:42;;;;;;;;;;;;;;;13.72;73.05;100043.50;290661;33;3334;-76
2023/10/13 00:26:53;;;;;;;;;;;;;;;13.73;73.23;100042.56;290558;33;3623;-75
2023/10/13 00:27:06;;;;;;;;;;;;;;;13.71;73.25;100040.00;287665;34;4654;-75
2023/10/13 00:27:41;;;;;;;;;;;;;;;13.72;73.46;100044.34;284221;34;5553;-75
2023/10/13 00:27:51;;;;;;;;;;;;;;;13.70;73.48;100040.94;277818;35;7871;-75
2023/10/13 00:28:02;;;;;;;;;;;;;;;13.70;73.24;100043.56;276541;35;7032;-75
2023/10/13 00:28:23;;;;;;;;;;;;;;;13.70;73.28;100042.72;277537;35;839;-75
2023/10/13 00:28:43;;;;;;;;;;;;;;;13.69;73.26;100044.47;272790;36;6556;-76
2023/10/13 00:29:29;;;;;;;;;;;;;;;13.66;73.63;100042.00;268781;36;7056;-75
2023/10/13 00:29:40;;;;;;;;;;;;;;;13.63;73.78;100050.88;266099;36;9641;-75
2023/10/13 00:29:51;;;;;;;;;;;;;;;13.60;73.68;100040.50;265208;36;8472;-75
2023/10/13 00:31:53;;;;;;;;;;;;;;;13.61;74.04;100039.56;2493365;27;20357;-76
2023/10/13 00:32:04;;;;;;;;;;;;;;;13.61;74.36;100043.97;354532;27;839;-76
2023/10/13 00:32:16;;;;;;;;;;;;;;;13.60;73.97;100040.50;353244;28;891;-76
2023/10/13 00:32:27;;;;;;;;;;;;;;;13.61;74.37;100042.22;349853;28;1265;-76
2023/10/13 00:32:39;;;;;;;;;;;;;;;13.62;74.13;100041.28;349419;28;1309;-76
2023/10/13 00:32:56;;;;;;;;;;;;;;;13.62;74.19;100043.91;349240;28;1352;-76
2023/10/13 00:33:07;;;;;;;;;;;;;;;13.63;74.34;100045.63;349308;28;1804;-75
2023/10/13 00:33:22;;;;;;;;;;;;;;;13.62;74.50;100038.66;346741;28;1375;-75
2023/10/13 00:33:32;;;;;;;;;;;;;;;13.64;74.49;100042.06;348731;28;1409;-75
2023/10/13 00:33:46;;;;;;;;;;;;;;;13.62;74.46;100043.91;349207;28;878;-75
2023/10/13 00:34:01;;;;;;;;;;;;;;;13.61;74.51;100039.56;350274;28;885;-76
2023/10/13 00:34:32;;;;;;;;;;;;;;;13.60;74.40;100039.66;348938;28;1153;-76
2023/10/13 00:34:42;;;;;;;;;;;;;;;13.58;74.62;100039.72;346370;28;871;-75
2023/10/13 00:34:56;;;;;;;;;;;;;;;13.56;74.80;100044.19;346148;28;852;-75
2023/10/13 00:35:06;;;;;;;;;;;;;;;13.55;74.82;100042.50;347595;28;1248;-76
2023/10/13 00:35:29;;;;;;;;;;;;;;;13.56;75.08;100038.09;346753;28;1211;-75
2023/10/13 00:35:42;;;;;;;;;;;;;;;13.56;75.10;100043.34;347507;28;1354;-76
2023/10/13 00:35:52;;;;;;;;;;;;;;;13.53;75.03;100044.34;344668;28;1212;-76
2023/10/13 00:36:04;;;;;;;;;;;;;;;13.53;75.06;100044.34;345733;28;1045;-76
2023/10/13 00:36:19;;;;;;;;;;;;;;;13.54;75.29;100043.41;346544;28;942;-76
2023/10/13 00:36:31;;;;;;;;;;;;;;;13.54;75.24;100047.81;345981;28;1399;-76
2023/10/13 00:37:27;;;;;;;;;;;;;;;13.51;75.01;100051.44;343433;28;974;-77
2023/10/13 00:37:28;;;;;;;;;;;;;;;13.52;75.09;100042.63;346543;28;863;-76
2023/10/13 00:37:46;;;;;;;;;;;;;;;13.52;75.19;100042.63;340751;29;1095;-76
2023/10/13 00:37:57;;;;;;;;;;;;;;;13.52;75.39;100042.63;338153;29;1325;-76
2023/10/13 00:38:13;;;;;;;;;;;;;;;13.53;75.01;100041.72;338351;29;794;-75
2023/10/13 00:38:24;;;;;;;;;;;;;;;13.55;75.17;100039.84;337381;29;1090;-76
2023/10/13 00:38:35;;;;;;;;;;;;;;;13.55;75.17;100042.50;342018;28;1210;-76
2023/10/13 00:38:50;;;;;;;;;;;;;;;13.54;75.09;100038.16;342584;28;1257;-76
2023/10/13 00:39:00;;;;;;;;;;;;;;;13.54;74.89;100051.31;342098;28;1283;-76
2023/10/13 00:39:15;;;;;;;;;;;;;;;13.54;75.12;100038.16;341973;28;2409;-76
2023/10/13 00:39:28;;;;;;;;;;;;;;;13.56;75.11;100041.56;343419;28;3010;-75
2023/10/13 00:39:45;;;;;;;;;;;;;;;13.58;74.72;100037.09;338625;29;2693;-75
2023/10/13 00:39:56;;;;;;;;;;;;;;;13.57;74.91;100043.28;334909;29;4143;-77
2023/10/13 00:40:16;;;;;;;;;;;;;;;13.57;74.81;100045.91;334809;29;1374;-75
2023/10/13 00:40:53;;;;;;;;;;;;;;;13.56;74.70;100041.56;330765;29;1099;-76
2023/10/13 00:41:17;;;;;;;;;;;;;;;13.58;74.48;100039.72;332610;29;1367;-76
2023/10/13 00:42:06;;;;;;;;;;;;;;;13.56;74.37;100044.19;330763;29;696;-76
2023/10/13 00:42:30;;;;;;;;;;;;;;;13.56;74.62;100038.94;326387;30;2005;-75
2023/10/13 00:42:53;;;;;;;;;;;;;;;13.54;74.60;100040.78;328152;30;1179;-75
2023/10/13 00:43:31;;;;;;;;;;;;;;;13.54;74.60;100039.94;323470;30;1060;-75
2023/10/13 00:44:16;;;;;;;;;;;;;;;13.55;74.12;100042.50;323528;30;2422;-76
2023/10/13 00:44:37;;;;;;;;;;;;;;;13.52;74.24;100029.47;322733;30;2606;-76
2023/10/13 00:44:52;;;;;;;;;;;;;;;13.55;74.30;100034.59;319558;30;2301;-77
2023/10/13 00:45:04;;;;;;;;;;;;;;;13.56;74.42;100032.81;318348;30;2400;-77
2023/10/13 00:45:17;;;;;;;;;;;;;;;13.53;74.01;100028.56;318325;30;1574;-76
2023/10/13 00:45:28;;;;;;;;;;;;;;;13.54;74.01;100029.41;321865;30;1049;-76
2023/10/13 00:45:40;;;;;;;;;;;;;;;13.54;74.25;100034.66;319791;30;919;-76
2023/10/13 00:45:57;;;;;;;;;;;;;;;13.53;74.13;100038.22;316702;31;1829;-76
2023/10/13 00:46:07;;;;;;;;;;;;;;;13.54;73.95;100040.78;319791;30;1333;-76
2023/10/13 00:46:19;;;;;;;;;;;;;;;13.54;74.20;100032.91;316861;30;2666;-76
2023/10/13 00:46:35;;;;;;;;;;;;;;;13.56;74.05;100032.81;314651;31;3795;-76
2023/10/13 00:46:46;;;;;;;;;;;;;;;13.57;73.81;100037.16;315886;30;3167;-75
2023/10/13 00:46:56;;;;;;;;;;;;;;;13.55;74.07;100029.34;316383;31;882;-75
2023/10/13 00:47:09;;;;;;;;;;;;;;;13.55;74.30;100031.13;311396;31;3321;-75
2023/10/13 00:47:37;;;;;;;;;;;;;;;13.54;74.01;100040.78;312278;31;3083;-76
2023/10/13 00:47:56;;;;;;;;;;;;;;;13.55;74.10;100026.72;312402;31;2065;-77
2023/10/13 00:48:10;;;;;;;;;;;;;;;13.55;73.99;100026.72;310117;31;3269;-76
2023/10/13 00:48:29;;;;;;;;;;;;;;;13.54;74.36;100027.63;306498;32;3425;-77
2023/10/13 00:48:43;;;;;;;;;;;;;;;13.55;74.23;100033.75;302270;32;3971;-77
2023/10/13 00:48:54;;;;;;;;;;;;;;;13.51;74.09;100027.78;299427;32;3787;-76
2023/10/13 00:49:05;;;;;;;;;;;;;;;13.48;74.30;100030.53;296523;32;5156;-76
2023/10/13 00:49:15;;;;;;;;;;;;;;;13.48;74.26;100030.53;297655;32;4312;-76
2023/10/13 00:49:25;;;;;;;;;;;;;;;13.47;74.06;100031.47;298341;33;1258;-76
2023/10/13 00:49:39;;;;;;;;;;;;;;;13.48;74.02;100033.16;297367;33;4072;-77
2023/10/13 00:49:50;;;;;;;;;;;;;;;13.49;74.17;100032.25;294376;33;3030;-76
2023/10/13 00:50:00;;;;;;;;;;;;;;;13.47;74.38;100028.84;292826;33;3447;-77
2023/10/13 00:50:14;;;;;;;;;;;;;;;13.46;74.36;100027.13;294130;33;1661;-77
2023/10/13 00:50:25;;;;;;;;;;;;;;;13.47;74.37;100028.84;290324;34;1306;-78
2023/10/13 00:50:36;;;;;;;;;;;;;;;13.46;74.29;100031.53;286512;34;6148;-75
2023/10/13 00:50:47;;;;;;;;;;;;;;;13.45;74.40;100025.41;285318;34;6565;-74
2023/10/13 00:51:02;;;;;;;;;;;;;;;13.43;74.39;100022.00;285124;34;6788;-75
2023/10/13 00:51:32;;;;;;;;;;;;;;;13.42;74.72;100025.59;283352;34;7243;-76
2023/10/13 00:51:47;;;;;;;;;;;;;;;13.42;74.45;100024.75;280549;34;6467;-76
2023/10/13 00:51:57;;;;;;;;;;;;;;;13.40;74.50;100027.44;279276;35;5481;-76
2023/10/13 00:52:10;;;;;;;;;;;;;;;13.39;74.76;100019.63;280079;35;1276;-76
2023/10/13 00:52:22;;;;;;;;;;;;;;;13.39;74.68;100025.72;276443;35;5026;-76
2023/10/13 00:52:32;;;;;;;;;;;;;;;13.39;74.64;100028.38;275539;35;6575;-76
2023/10/13 00:54:35;;;;;;;;;;;;;;;13.48;74.02;100030.53;2497198;27;19932;-76
2023/10/13 00:54:48;;;;;;;;;;;;;;;13.44;74.19;100031.59;353231;28;1373;-74
2023/10/13 00:54:59;;;;;;;;;;;;;;;13.47;74.39;100028.84;351757;28;1614;-75
2023/10/13 00:55:12;;;;;;;;;;;;;;;13.46;74.43;100027.13;349032;28;1254;-76
2023/10/13 00:55:22;;;;;;;;;;;;;;;13.48;74.48;100019.16;349074;28;1338;-77
2023/10/13 00:55:33;;;;;;;;;;;;;;;13.47;74.08;100030.59;350316;28;1258;-77
2023/10/13 00:55:44;;;;;;;;;;;;;;;13.48;74.35;100029.69;349161;28;1378;-77
2023/10/13 00:55:57;;;;;;;;;;;;;;;13.47;74.43;100027.97;348985;28;800;-74
2023/10/13 00:56:07;;;;;;;;;;;;;;;13.45;74.40;100025.41;347696;28;840;-77
2023/10/13 00:56:26;;;;;;;;;;;;;;;13.44;74.19;100031.59;347464;28;1237;-76
2023/10/13 00:56:45;;;;;;;;;;;;;;;13.45;74.44;100030.69;346236;28;1381;-76
2023/10/13 00:57:11;;;;;;;;;;;;;;;13.44;74.20;100033.38;346677;28;1397;-77
2023/10/13 00:57:29;;;;;;;;;;;;;;;13.42;74.57;100030.84;349141;28;926;-76
2023/10/13 00:57:40;;;;;;;;;;;;;;;13.43;74.54;100027.28;348481;28;2559;-76
2023/10/13 00:57:54;;;;;;;;;;;;;;;13.43;74.46;100027.28;344110;28;3697;-76
2023/10/13 00:58:06;;;;;;;;;;;;;;;13.41;74.57;100029.16;345278;28;2615;-76
2023/10/13 00:58:21;;;;;;;;;;;;;;;13.40;74.42;100022.19;346066;28;2309;-76
2023/10/13 00:58:33;;;;;;;;;;;;;;;13.40;74.47;100023.97;348860;28;1427;-76
2023/10/13 00:58:43;;;;;;;;;;;;;;;13.38;74.73;100024.03;349045;28;749;-76
2023/10/13 00:58:57;;;;;;;;;;;;;;;13.40;74.61;100026.59;350352;28;904;-76
2023/10/13 00:59:09;;;;;;;;;;;;;;;13.38;74.63;100018.78;349083;28;808;-76
2023/10/13 00:59:25;;;;;;;;;;;;;;;13.39;74.82;100028.38;349104;28;902;-76
2023/10/13 00:59:36;;;;;;;;;;;;;;;13.38;74.84;100026.66;348866;28;1386;-75
2023/10/13 00:59:47;;;;;;;;;;;;;;;13.40;74.52;100021.34;346301;28;1289;-76
2023/10/13 00:59:57;;;;;;;;;;;;;;;13.39;74.82;100025.72;348546;28;1161;-75
2023/10/13 01:00:24;;;;;;;;;;;;;;;13.39;74.84;100024.88;346719;28;1102;-75
2023/10/13 01:00:46;;;;;;;;;;;;;;;13.37;74.78;100027.56;343556;28;1292;-76
2023/10/13 01:01:06;;;;;;;;;;;;;;;13.35;74.82;100024.16;343993;28;1360;-76
2023/10/13 01:01:22;;;;;;;;;;;;;;;13.35;74.74;100024.16;342219;28;1250;-76
2023/10/13 01:01:34;;;;;;;;;;;;;;;13.34;74.89;100019.84;343411;28;1253;-77
2023/10/13 01:01:45;;;;;;;;;;;;;;;13.35;74.92;100018.06;343523;28;1075;-76
2023/10/13 01:01:55;;;;;;;;;;;;;;;13.35;74.77;100024.16;340594;29;1209;-75
2023/10/13 01:02:56;;;;;;;;;;;;;;;13.42;74.75;100025.59;336862;29;1059;-75
2023/10/13 01:03:07;;;;;;;;;;;;;;;13.39;74.66;100022.25;334035;29;1340;-75
2023/10/13 01:03:25;;;;;;;;;;;;;;;13.39;74.83;100020.47;332237;29;1492;-76
2023/10/13 01:03:55;;;;;;;;;;;;;;;13.39;74.51;100015.22;333185;29;1095;-75
2023/10/13 01:04:08;;;;;;;;;;;;;;;13.38;74.93;100021.41;331798;29;1265;-75
2023/10/13 01:04:19;;;;;;;;;;;;;;;13.38;75.05;100017.91;333319;29;871;-76
2023/10/13 01:04:31;;;;;;;;;;;;;;;13.39;74.81;100019.63;335870;29;1648;-76
2023/10/13 01:04:42;;;;;;;;;;;;;;;13.40;74.58;100014.28;337188;29;1852;-76
2023/10/13 01:04:54;;;;;;;;;;;;;;;13.40;74.60;100014.28;333130;29;1463;-75
2023/10/13 01:05:04;;;;;;;;;;;;;;;13.41;74.90;100018.63;331912;29;1287;-75
2023/10/13 01:05:19;;;;;;;;;;;;;;;13.40;74.63;100018.69;332478;29;1367;-78
2023/10/13 01:05:31;;;;;;;;;;;;;;;13.41;74.53;100023.03;329099;29;2022;-75
2023/10/13 01:05:41;;;;;;;;;;;;;;;13.41;74.76;100017.78;328121;30;1680;-76
2023/10/13 01:05:55;;;;;;;;;;;;;;;13.41;74.57;100029.16;326924;30;1310;-76
2023/10/13 01:06:05;;;;;;;;;;;;;;;13.41;74.68;100018.63;327901;30;874;-76
2023/10/13 01:06:19;;;;;;;;;;;;;;;13.40;74.61;100019.56;329155;29;1192;-75
2023/10/13 01:06:29;;;;;;;;;;;;;;;13.39;74.70;100022.25;327419;30;1689;-76
2023/10/13 01:06:39;;;;;;;;;;;;;;;13.40;74.54;100022.19;328279;30;2192;-76
2023/10/13 01:06:51;;;;;;;;;;;;;;;13.41;74.70;100023.88;325804;30;1264;-76
2023/10/13 01:07:02;;;;;;;;;;;;;;;13.40;74.70;100021.34;321228;30;2572;-75
2023/10/13 01:07:12;;;;;;;;;;;;;;;13.39;74.77;100019.63;317590;30;4070;-76
2023/10/13 01:07:24;;;;;;;;;;;;;;;13.40;74.88;100014.28;317950;30;3999;-76
2023/10/13 01:07:37;;;;;;;;;;;;;;;13.41;74.63;100023.88;320039;30;2420;-76
2023/10/13 01:07:54;;;;;;;;;;;;;;;13.40;74.81;100019.56;319616;30;2551;-75
2023/10/13 01:08:04;;;;;;;;;;;;;;;13.41;74.84;100015.16;321067;30;1360;-76
2023/10/13 01:08:15;;;;;;;;;;;;;;;13.41;74.46;100021.25;319868;30;1276;-75
2023/10/13 01:08:37;;;;;;;;;;;;;;;13.37;74.73;100022.31;319977;30;2050;-75
2023/10/13 01:08:51;;;;;;;;;;;;;;;13.36;74.74;100020.63;322275;30;1403;-76
2023/10/13 01:09:14;;;;;;;;;;;;;;;13.36;74.70;100025.03;319278;30;3269;-76
2023/10/13 01:09:24;;;;;;;;;;;;;;;13.35;74.65;100020.69;318861;30;2713;-75
2023/10/13 01:09:40;;;;;;;;;;;;;;;13.34;74.88;100024.22;317580;31;814;-75
2023/10/13 01:09:50;;;;;;;;;;;;;;;13.36;74.79;100019.75;318716;31;857;-76
2023/10/13 01:10:04;;;;;;;;;;;;;;;13.34;75.07;100027.72;316444;30;2929;-76
2023/10/13 01:10:15;;;;;;;;;;;;;;;13.34;75.05;100024.22;314771;31;2414;-75
2023/10/13 01:10:32;;;;;;;;;;;;;;;13.32;75.03;100022.53;318491;30;2190;-74
2023/10/13 01:10:42;;;;;;;;;;;;;;;13.33;74.69;100026.00;319371;30;2718;-76
2023/10/13 01:10:53;;;;;;;;;;;;;;;13.34;74.85;100021.59;317016;31;3226;-76
2023/10/13 01:11:07;;;;;;;;;;;;;;;13.35;74.82;100024.16;317330;31;1040;-76
2023/10/13 01:11:18;;;;;;;;;;;;;;;13.36;74.55;100027.66;310727;31;1314;-76
2023/10/13 01:11:29;;;;;;;;;;;;;;;13.35;74.57;100023.31;307353;31;4853;-76
2023/10/13 01:11:52;;;;;;;;;;;;;;;13.35;74.83;100024.16;304968;31;3858;-76
2023/10/13 01:12:03;;;;;;;;;;;;;;;13.36;74.78;100022.38;303483;32;3595;-75
2023/10/13 01:12:14;;;;;;;;;;;;;;;13.36;74.81;100020.63;302614;32;4374;-75
2023/10/13 01:12:24;;;;;;;;;;;;;;;13.36;74.65;100020.63;301269;32;3437;-75
2023/10/13 01:12:35;;;;;;;;;;;;;;;13.37;74.71;100022.31;299109;33;1596;-76
2023/10/13 01:12:50;;;;;;;;;;;;;;;13.36;74.78;100020.63;298375;32;2844;-76
2023/10/13 01:13:04;;;;;;;;;;;;;;;13.34;74.68;100022.47;296837;33;3770;-76
2023/10/13 01:13:14;;;;;;;;;;;;;;;13.33;74.78;100026.00;294019;33;4944;-76
2023/10/13 01:13:26;;;;;;;;;;;;;;;13.32;74.63;100024.31;293198;33;6165;-77
2023/10/13 01:13:37;;;;;;;;;;;;;;;13.32;74.71;100021.66;295168;33;1407;-75
2023/10/13 01:13:50;;;;;;;;;;;;;;;13.33;74.67;100023.38;288940;33;6785;-76
2023/10/13 01:14:02;;;;;;;;;;;;;;;13.33;74.80;100020.75;291268;33;5136;-76
2023/10/13 01:14:14;;;;;;;;;;;;;;;13.34;74.82;100024.22;291605;33;5117;-76
2023/10/13 01:14:28;;;;;;;;;;;;;;;13.34;74.79;100024.22;290616;33;6242;-76
2023/10/13 01:14:39;;;;;;;;;;;;;;;13.33;74.81;100026.00;288217;34;4780;-77
2023/10/13 01:14:49;;;;;;;;;;;;;;;13.34;74.74;100026.88;288409;34;1257;-76
2023/10/13 01:15:07;;;;;;;;;;;;;;;13.32;74.87;100025.16;283871;34;4774;-76
2023/10/13 01:15:20;;;;;;;;;;;;;;;13.30;74.87;100029.63;281001;35;1663;-76
2023/10/13 01:15:33;;;;;;;;;;;;;;;13.27;75.16;100023.66;280780;34;7105;-76
2023/10/13 01:15:45;;;;;;;;;;;;;;;13.27;74.90;100026.28;280930;34;9053;-76
2023/10/13 01:17:45;;;;;;;;;;;;;;;13.19;75.39;100029.25;2493054;27;19937;-76
2023/10/13 01:18:14;;;;;;;;;;;;;;;13.20;75.25;100024.84;354520;27;906;-76
2023/10/13 01:18:28;;;;;;;;;;;;;;;13.25;75.36;100022.88;353004;28;1042;-75
2023/10/13 01:18:47;;;;;;;;;;;;;;;13.25;75.15;100028.13;350510;28;1353;-75
2023/10/13 01:18:59;;;;;;;;;;;;;;;13.26;74.99;100029.84;348708;28;813;-76
2023/10/13 01:19:17;;;;;;;;;;;;;;;13.25;75.27;100023.72;348661;28;849;-76
2023/10/13 01:19:27;;;;;;;;;;;;;;;13.29;75.10;100029.69;348924;28;1459;-76
2023/10/13 01:19:42;;;;;;;;;;;;;;;13.28;75.12;100023.59;347661;28;1326;-76
2023/10/13 01:19:58;;;;;;;;;;;;;;;13.29;74.80;100025.28;349455;28;1454;-76
2023/10/13 01:20:11;;;;;;;;;;;;;;;13.30;74.85;100023.53;352650;28;1403;-77
2023/10/13 01:20:24;;;;;;;;;;;;;;;13.29;74.77;100021.81;348809;28;1240;-76
2023/10/13 01:20:43;;;;;;;;;;;;;;;13.31;74.90;100025.22;350339;28;1136;-77
2023/10/13 01:20:58;;;;;;;;;;;;;;;13.30;74.91;100020.88;347603;28;946;-76
2023/10/13 01:21:09;;;;;;;;;;;;;;;13.27;74.93;100026.28;349027;28;949;-76
2023/10/13 01:21:27;;;;;;;;;;;;;;;13.26;75.00;100020.16;349012;28;1273;-76
2023/10/13 01:21:40;;;;;;;;;;;;;;;13.27;75.01;100021.88;351047;28;1045;-75
2023/10/13 01:21:56;;;;;;;;;;;;;;;13.29;74.75;100021.81;347406;28;884;-76
2023/10/13 01:22:07;;;;;;;;;;;;;;;13.28;74.94;100023.59;347588;28;1082;-76
2023/10/13 01:22:21;;;;;;;;;;;;;;;13.29;74.56;100019.19;344934;28;1100;-75
2023/10/13 01:22:32;;;;;;;;;;;;;;;13.29;74.91;100019.19;342297;28;1325;-75
2023/10/13 01:22:42;;;;;;;;;;;;;;;13.29;74.91;100011.28;347611;28;1419;-76
2023/10/13 01:22:55;;;;;;;;;;;;;;;13.29;74.84;100019.19;346135;28;1327;-76
2023/10/13 01:23:18;;;;;;;;;;;;;;;13.27;74.51;100013.13;345059;28;910;-75
2023/10/13 01:23:28;;;;;;;;;;;;;;;13.25;74.47;100010.59;346167;28;1271;-76
2023/10/13 01:23:42;;;;;;;;;;;;;;;13.25;74.66;100012.34;344882;28;1259;-75
2023/10/13 01:23:52;;;;;;;;;;;;;;;13.24;74.39;100015.91;344322;28;1227;-75
2023/10/13 01:24:07;;;;;;;;;;;;;;;13.23;74.73;100012.44;345124;28;892;-76